sensor_id;sensor_type;location;lat;lon;timestamp;pressure;altitude;pressure_sealevel;temperature;humidity
53011;BME280;42803;55.762;38.084;2022-09-09T00:01:28;100266.41;;;3.76;100.00
53011;BME280;42803;55.762;38.084;2022-09-09T00:04:09;100267.16;;;3.75;100.00
53011;BME280;42803;55.762;38.084;2022-09-09T00:06:45;100277.28;;;3.73;100.00
53011;BME280;42803;55.762;38.084;2022-09-09T00:09:16;100273.03;;;3.74;100.00
53011;BME280;42803;55.762;38.084;2022-09-09T00:11:48;100280.06;;;3.75;100.00
53011;BME280;42803;55.762;38.084;2022-09-09T00:14:25;100279.31;;;3.76;100.00
53011;BME280;42803;55.762;38.084;2022-09-09T00:17:00;100284.09;;;3.80;100.00
53011;BME280;42803;55.762;38.084;2022-09-09T00:19:36;100285.94;;;3.81;100.00
53011;BME280;42803;55.762;38.084;2022-09-09T00:22:15;100283.53;;;3.82;100.00
53011;BME280;42803;55.762;38.084;2022-09-09T00:24:46;100287.94;;;3.83;100.00
53011;BME280;42803;55.762;38.084;2022-09-09T00:27:21;100281.69;;;3.81;100.00
53011;BME280;42803;55.762;38.084;2022-09-09T00:29:56;100287.03;;;3.83;100.00
53011;BME280;42803;55.762;38.084;2022-09-09T00:32:30;100277.78;;;3.85;100.00
53011;BME280;42803;55.762;38.084;2022-09-09T00:35:05;100280.38;;;3.85;100.00
53011;BME280;42803;55.762;38.084;2022-09-09T00:37:43;100293.63;;;3.88;100.00
53011;BME280;42803;55.762;38.084;2022-09-09T00:40:22;100292.16;;;3.90;100.00
53011;BME280;42803;55.762;38.084;2022-09-09T00:43:02;100294.16;;;3.92;100.00
53011;BME280;42803;55.762;38.084;2022-09-09T00:46:05;100293.44;;;3.94;100.00
53011;BME280;42803;55.762;38.084;2022-09-09T00:48:49;100298.03;;;3.96;100.00
53011;BME280;42803;55.762;38.084;2022-09-09T00:51:33;100295.63;;;3.98;100.00
53011;BME280;42803;55.762;38.084;2022-09-09T00:54:15;100305.38;;;4.00;100.00
53011;BME280;42803;55.762;38.084;2022-09-09T00:57:00;100297.06;;;4.03;100.00
53011;BME280;42803;55.762;38.084;2022-09-09T00:59:42;100298.34;;;4.06;100.00
53011;BME280;42803;55.762;38.084;2022-09-09T01:02:26;100304.63;;;4.08;100.00
53011;BME280;42803;55.762;38.084;2022-09-09T01:05:04;100300.38;;;4.09;100.00
53011;BME280;42803;55.762;38.084;2022-09-09T01:07:36;100304.94;;;4.11;100.00
53011;BME280;42803;55.762;38.084;2022-09-09T01:10:11;100299.78;;;4.11;100.00
53011;BME280;42803;55.762;38.084;2022-09-09T01:12:47;100303.47;;;4.13;100.00
53011;BME280;42803;55.762;38.084;2022-09-09T01:15:23;100303.47;;;4.13;100.00
53011;BME280;42803;55.762;38.084;2022-09-09T01:17:59;100303.63;;;4.15;100.00
53011;BME280;42803;55.762;38.084;2022-09-09T01:20:40;100311.97;;;4.12;100.00
53011;BME280;42803;55.762;38.084;2022-09-09T01:23:26;100304.78;;;4.10;100.00
53011;BME280;42803;55.762;38.084;2022-09-09T01:26:15;100314.38;;;4.11;100.00
53011;BME280;42803;55.762;38.084;2022-09-09T01:28:48;100320.44;;;4.11;100.00
53011;BME280;42803;55.762;38.084;2022-09-09T01:31:28;100318.97;;;4.13;100.00
53011;BME280;42803;55.762;38.084;2022-09-09T01:33:59;100318.06;;;4.13;100.00
53011;BME280;42803;55.762;38.084;2022-09-09T01:36:35;100318.06;;;4.13;100.00
53011;BME280;42803;55.762;38.084;2022-09-09T01:39:07;100322.31;;;4.12;100.00
53011;BME280;42803;55.762;38.084;2022-09-09T01:41:38;100316.78;;;4.09;100.00
53011;BME280;42803;55.762;38.084;2022-09-09T01:44:13;100323.44;;;4.07;100.00
53011;BME280;42803;55.762;38.084;2022-09-09T01:46:44;100333.75;;;4.07;100.00
53011;BME280;42803;55.762;38.084;2022-09-09T01:49:17;100329.50;;;4.08;100.00
53011;BME280;42803;55.762;38.084;2022-09-09T01:51:49;100331.94;;;4.06;100.00
53011;BME280;42803;55.762;38.084;2022-09-09T01:54:26;100326.75;;;4.06;100.00
53011;BME280;42803;55.762;38.084;2022-09-09T01:57:06;100332.69;;;4.05;100.00
53011;BME280;42803;55.762;38.084;2022-09-09T01:59:54;100332.69;;;4.05;100.00
53011;BME280;42803;55.762;38.084;2022-09-09T02:02:32;100339.50;;;4.05;100.00
53011;BME280;42803;55.762;38.084;2022-09-09T02:05:20;100335.25;;;4.05;100.00
53011;BME280;42803;55.762;38.084;2022-09-09T02:07:59;100341.16;;;4.04;100.00
53011;BME280;42803;55.762;38.084;2022-09-09T02:10:45;100334.91;;;4.02;100.00
53011;BME280;42803;55.762;38.084;2022-09-09T02:13:32;100343.72;;;4.04;100.00
53011;BME280;42803;55.762;38.084;2022-09-09T02:16:07;100345.59;;;4.05;100.00
53011;BME280;42803;55.762;38.084;2022-09-09T02:18:40;100356.31;;;4.01;100.00
53011;BME280;42803;55.762;38.084;2022-09-09T02:21:13;100346.00;;;3.94;100.00
53011;BME280;42803;55.762;38.084;2022-09-09T02:23:43;100350.66;;;3.89;100.00
53011;BME280;42803;55.762;38.084;2022-09-09T02:26:15;100349.69;;;3.89;100.00
53011;BME280;42803;55.762;38.084;2022-09-09T02:28:57;100357.44;;;3.89;100.00
53011;BME280;42803;55.762;38.084;2022-09-09T02:31:28;100367.06;;;3.90;100.00
53011;BME280;42803;55.762;38.084;2022-09-09T02:34:03;100362.44;;;3.87;100.00
53011;BME280;42803;55.762;38.084;2022-09-09T02:36:35;100360.41;;;3.85;100.00
53011;BME280;42803;55.762;38.084;2022-09-09T02:39:07;100368.56;;;3.81;100.00
53011;BME280;42803;55.762;38.084;2022-09-09T02:41:41;100365.63;;;3.78;100.00
53011;BME280;42803;55.762;38.084;2022-09-09T02:44:13;100373.03;;;3.75;100.00
53011;BME280;42803;55.762;38.084;2022-09-09T02:47:09;100381.84;;;3.77;100.00
53011;BME280;42803;55.762;38.084;2022-09-09T02:49:48;100391.06;;;3.82;100.00
53011;BME280;42803;55.762;38.084;2022-09-09T02:52:26;100386.63;;;3.81;100.00
53011;BME280;42803;55.762;38.084;2022-09-09T02:54:58;100400.47;;;3.81;100.00
53011;BME280;42803;55.762;38.084;2022-09-09T02:57:31;100394.38;;;3.81;100.00
53011;BME280;42803;55.762;38.084;2022-09-09T03:00:04;100400.13;;;3.78;100.00
53011;BME280;42803;55.762;38.084;2022-09-09T03:02:34;100390.50;;;3.77;100.00
53011;BME280;42803;55.762;38.084;2022-09-09T03:05:06;100390.72;;;3.79;100.00
53011;BME280;42803;55.762;38.084;2022-09-09T03:07:36;100397.16;;;3.82;100.00
53011;BME280;42803;55.762;38.084;2022-09-09T03:10:06;100398.44;;;3.86;100.00
53011;BME280;42803;55.762;38.084;2022-09-09T03:12:37;100406.88;;;3.92;100.00
53011;BME280;42803;55.762;38.084;2022-09-09T03:15:08;100405.78;;;3.97;100.00
53011;BME280;42803;55.762;38.084;2022-09-09T03:17:39;100394.88;;;4.00;100.00
53011;BME280;42803;55.762;38.084;2022-09-09T03:20:09;100396.88;;;4.09;100.00
53011;BME280;42803;55.762;38.084;2022-09-09T03:22:38;100395.53;;;4.20;100.00
53011;BME280;42803;55.762;38.084;2022-09-09T03:25:08;100403.81;;;4.25;100.00
53011;BME280;42803;55.762;38.084;2022-09-09T03:27:37;100400.44;;;4.33;100.00
53011;BME280;42803;55.762;38.084;2022-09-09T03:30:09;100406.34;;;4.39;99.99
53011;BME280;42803;55.762;38.084;2022-09-09T03:32:40;100406.91;;;4.36;99.73
53011;BME280;42803;55.762;38.084;2022-09-09T03:35:15;100400.66;;;4.27;99.64
53011;BME280;42803;55.762;38.084;2022-09-09T03:37:44;100402.72;;;4.23;99.48
53011;BME280;42803;55.762;38.084;2022-09-09T03:40:15;100399.59;;;4.18;99.53
53011;BME280;42803;55.762;38.084;2022-09-09T03:42:47;100403.47;;;4.14;99.89
53011;BME280;42803;55.762;38.084;2022-09-09T03:45:20;100410.16;;;4.12;99.92
53011;BME280;42803;55.762;38.084;2022-09-09T03:47:49;100416.25;;;4.13;100.00
53011;BME280;42803;55.762;38.084;2022-09-09T03:50:18;100424.00;;;4.13;99.75
53011;BME280;42803;55.762;38.084;2022-09-09T03:52:48;100428.97;;;4.11;99.87
53011;BME280;42803;55.762;38.084;2022-09-09T03:55:21;100425.06;;;4.15;99.83
53011;BME280;42803;55.762;38.084;2022-09-09T03:57:51;100423.75;;;4.19;99.89
53011;BME280;42803;55.762;38.084;2022-09-09T04:00:21;100428.19;;;4.20;100.00
53011;BME280;42803;55.762;38.084;2022-09-09T04:02:52;100434.06;;;4.26;99.87
53011;BME280;42803;55.762;38.084;2022-09-09T04:05:22;100437.19;;;4.30;99.45
53011;BME280;42803;55.762;38.084;2022-09-09T04:07:51;100429.03;;;4.34;99.27
53011;BME280;42803;55.762;38.084;2022-09-09T04:10:22;100445.13;;;4.39;99.23
53011;BME280;42803;55.762;38.084;2022-09-09T04:12:52;100436.97;;;4.43;98.82
53011;BME280;42803;55.762;38.084;2022-09-09T04:15:23;100436.56;;;4.47;98.60
53011;BME280;42803;55.762;38.084;2022-09-09T04:17:52;100437.84;;;4.51;98.59
53011;BME280;42803;55.762;38.084;2022-09-09T04:20:21;100435.94;;;4.57;98.70
53011;BME280;42803;55.762;38.084;2022-09-09T04:22:51;100437.97;;;4.59;98.24
53011;BME280;42803;55.762;38.084;2022-09-09T04:25:20;100441.59;;;4.69;98.22
53011;BME280;42803;55.762;38.084;2022-09-09T04:27:53;100435.31;;;4.74;97.95
53011;BME280;42803;55.762;38.084;2022-09-09T04:30:24;100439.34;;;4.79;97.42
53011;BME280;42803;55.762;38.084;2022-09-09T04:32:55;100447.41;;;4.89;97.48
53011;BME280;42803;55.762;38.084;2022-09-09T04:35:25;100435.91;;;4.94;97.07
53011;BME280;42803;55.762;38.084;2022-09-09T04:37:56;100434.03;;;5.00;96.55
53011;BME280;42803;55.762;38.084;2022-09-09T04:40:25;100434.66;;;5.13;96.21
53011;BME280;42803;55.762;38.084;2022-09-09T04:42:55;100441.06;;;5.24;95.77
53011;BME280;42803;55.762;38.084;2022-09-09T04:45:25;100436.19;;;5.34;95.50
53011;BME280;42803;55.762;38.084;2022-09-09T04:47:54;100436.09;;;5.42;94.86
53011;BME280;42803;55.762;38.084;2022-09-09T04:50:24;100442.88;;;5.48;94.45
53011;BME280;42803;55.762;38.084;2022-09-09T04:53:00;100440.56;;;5.58;93.99
53011;BME280;42803;55.762;38.084;2022-09-09T04:55:29;100444.53;;;5.71;93.49
53011;BME280;42803;55.762;38.084;2022-09-09T04:58:03;100448.53;;;5.76;92.98
53011;BME280;42803;55.762;38.084;2022-09-09T05:00:34;100452.16;;;5.85;93.02
53011;BME280;42803;55.762;38.084;2022-09-09T05:03:06;100445.00;;;5.98;92.33
53011;BME280;42803;55.762;38.084;2022-09-09T05:05:36;100451.88;;;6.14;91.78
53011;BME280;42803;55.762;38.084;2022-09-09T05:08:07;100448.13;;;6.19;91.17
53011;BME280;42803;55.762;38.084;2022-09-09T05:10:39;100456.13;;;6.29;90.51
53011;BME280;42803;55.762;38.084;2022-09-09T05:13:09;100454.91;;;6.41;90.33
53011;BME280;42803;55.762;38.084;2022-09-09T05:15:40;100459.03;;;6.48;90.13
53011;BME280;42803;55.762;38.084;2022-09-09T05:18:10;100461.75;;;6.56;89.28
53011;BME280;42803;55.762;38.084;2022-09-09T05:20:40;100463.91;;;6.61;88.51
53011;BME280;42803;55.762;38.084;2022-09-09T05:23:10;100465.31;;;6.66;88.45
53011;BME280;42803;55.762;38.084;2022-09-09T05:25:41;100464.31;;;6.72;88.01
53011;BME280;42803;55.762;38.084;2022-09-09T05:28:10;100476.56;;;6.82;87.29
53011;BME280;42803;55.762;38.084;2022-09-09T05:30:41;100468.53;;;6.88;87.12
53011;BME280;42803;55.762;38.084;2022-09-09T05:33:10;100466.84;;;6.88;86.54
53011;BME280;42803;55.762;38.084;2022-09-09T05:35:39;100462.28;;;6.94;85.82
53011;BME280;42803;55.762;38.084;2022-09-09T05:38:09;100469.97;;;7.01;85.31
53011;BME280;42803;55.762;38.084;2022-09-09T05:40:38;100460.91;;;7.14;85.01
53011;BME280;42803;55.762;38.084;2022-09-09T05:43:10;100465.81;;;7.19;85.01
53011;BME280;42803;55.762;38.084;2022-09-09T05:45:39;100461.31;;;7.34;84.81
53011;BME280;42803;55.762;38.084;2022-09-09T05:48:09;100467.22;;;7.49;83.92
53011;BME280;42803;55.762;38.084;2022-09-09T05:50:38;100475.25;;;7.68;83.75
53011;BME280;42803;55.762;38.084;2022-09-09T05:53:07;100468.69;;;7.71;83.18
53011;BME280;42803;55.762;38.084;2022-09-09T05:55:36;100466.56;;;7.85;82.88
53011;BME280;42803;55.762;38.084;2022-09-09T05:58:05;100474.09;;;7.90;81.75
53011;BME280;42803;55.762;38.084;2022-09-09T06:00:34;100474.72;;;7.96;81.17
53011;BME280;42803;55.762;38.084;2022-09-09T06:03:05;100480.56;;;8.02;80.88
53011;BME280;42803;55.762;38.084;2022-09-09T06:05:35;100479.06;;;8.13;80.93
53011;BME280;42803;55.762;38.084;2022-09-09T06:08:05;100476.00;;;8.17;80.69
53011;BME280;42803;55.762;38.084;2022-09-09T06:10:34;100476.75;;;8.16;80.60
53011;BME280;42803;55.762;38.084;2022-09-09T06:13:04;100477.06;;;8.19;80.14
53011;BME280;42803;55.762;38.084;2022-09-09T06:15:33;100478.44;;;8.16;80.35
53011;BME280;42803;55.762;38.084;2022-09-09T06:18:03;100477.25;;;8.29;80.62
53011;BME280;42803;55.762;38.084;2022-09-09T06:20:32;100473.94;;;8.48;79.62
53011;BME280;42803;55.762;38.084;2022-09-09T06:23:03;100478.22;;;8.47;80.00
53011;BME280;42803;55.762;38.084;2022-09-09T06:25:33;100485.25;;;8.57;77.97
53011;BME280;42803;55.762;38.084;2022-09-09T06:28:02;100482.66;;;8.66;76.62
53011;BME280;42803;55.762;38.084;2022-09-09T06:30:32;100476.09;;;8.78;76.54
53011;BME280;42803;55.762;38.084;2022-09-09T06:33:01;100491.84;;;8.79;75.94
53011;BME280;42803;55.762;38.084;2022-09-09T06:35:30;100493.38;;;8.77;74.67
53011;BME280;42803;55.762;38.084;2022-09-09T06:37:59;100494.44;;;8.88;75.09
53011;BME280;42803;55.762;38.084;2022-09-09T06:40:29;100493.97;;;8.92;73.65
53011;BME280;42803;55.762;38.084;2022-09-09T06:42:59;100496.56;;;9.10;74.17
53011;BME280;42803;55.762;38.084;2022-09-09T06:45:35;100504.34;;;9.27;73.69
53011;BME280;42803;55.762;38.084;2022-09-09T06:48:04;100511.53;;;9.38;72.39
53011;BME280;42803;55.762;38.084;2022-09-09T06:50:34;100500.69;;;9.25;70.62
53011;BME280;42803;55.762;38.084;2022-09-09T06:53:04;100499.25;;;9.46;69.87
53011;BME280;42803;55.762;38.084;2022-09-09T06:55:34;100500.47;;;9.49;69.60
53011;BME280;42803;55.762;38.084;2022-09-09T06:58:08;100508.19;;;9.39;69.96
53011;BME280;42803;55.762;38.084;2022-09-09T07:00:37;100506.59;;;9.50;69.38
53011;BME280;42803;55.762;38.084;2022-09-09T07:03:07;100508.69;;;9.71;66.17
53011;BME280;42803;55.762;38.084;2022-09-09T07:05:36;100505.03;;;10.33;63.62
53011;BME280;42803;55.762;38.084;2022-09-09T07:08:05;100500.50;;;10.68;62.55
53011;BME280;42803;55.762;38.084;2022-09-09T07:10:36;100502.81;;;10.84;62.39
53011;BME280;42803;55.762;38.084;2022-09-09T07:13:05;100507.91;;;11.31;62.31
53011;BME280;42803;55.762;38.084;2022-09-09T07:15:35;100508.81;;;11.89;59.62
53011;BME280;42803;55.762;38.084;2022-09-09T07:18:04;100512.72;;;11.84;57.10
53011;BME280;42803;55.762;38.084;2022-09-09T07:20:33;100512.66;;;11.74;57.56
53011;BME280;42803;55.762;38.084;2022-09-09T07:23:02;100522.63;;;11.01;57.28
53011;BME280;42803;55.762;38.084;2022-09-09T07:25:31;100523.25;;;10.98;59.11
53011;BME280;42803;55.762;38.084;2022-09-09T07:28:02;100519.94;;;11.58;57.05
53011;BME280;42803;55.762;38.084;2022-09-09T07:30:32;100520.13;;;12.19;56.24
53011;BME280;42803;55.762;38.084;2022-09-09T07:33:01;100520.16;;;12.60;54.87
53011;BME280;42803;55.762;38.084;2022-09-09T07:35:31;100522.22;;;12.23;54.75
53011;BME280;42803;55.762;38.084;2022-09-09T07:38:01;100517.38;;;12.58;54.03
53011;BME280;42803;55.762;38.084;2022-09-09T07:40:30;100522.75;;;12.90;54.28
53011;BME280;42803;55.762;38.084;2022-09-09T07:43:00;100528.88;;;12.19;53.50
53011;BME280;42803;55.762;38.084;2022-09-09T07:45:30;100529.41;;;11.76;55.12
53011;BME280;42803;55.762;38.084;2022-09-09T07:48:00;100527.59;;;12.35;55.28
53011;BME280;42803;55.762;38.084;2022-09-09T07:50:30;100536.59;;;12.08;53.66
53011;BME280;42803;55.762;38.084;2022-09-09T07:52:59;100548.78;;;11.49;55.06
53011;BME280;42803;55.762;38.084;2022-09-09T07:55:30;100553.88;;;11.00;57.46
53011;BME280;42803;55.762;38.084;2022-09-09T07:57:59;100560.13;;;11.02;57.51
53011;BME280;42803;55.762;38.084;2022-09-09T08:00:28;100555.47;;;11.27;58.05
53011;BME280;42803;55.762;38.084;2022-09-09T08:02:59;100540.19;;;11.89;56.41
53011;BME280;42803;55.762;38.084;2022-09-09T08:05:30;100542.78;;;12.69;54.35
53011;BME280;42803;55.762;38.084;2022-09-09T08:07:59;100553.50;;;13.13;52.64
53011;BME280;42803;55.762;38.084;2022-09-09T08:10:28;100539.13;;;12.57;52.27
53011;BME280;42803;55.762;38.084;2022-09-09T08:13:00;100542.09;;;12.11;53.85
53011;BME280;42803;55.762;38.084;2022-09-09T08:15:45;100556.28;;;11.84;54.97
53011;BME280;42803;55.762;38.084;2022-09-09T08:18:16;100551.88;;;11.64;55.46
53011;BME280;42803;55.762;38.084;2022-09-09T08:20:45;100569.22;;;11.53;55.63
53011;BME280;42803;55.762;38.084;2022-09-09T08:23:14;100552.72;;;11.54;54.73
53011;BME280;42803;55.762;38.084;2022-09-09T08:25:44;100552.25;;;11.98;55.21
53011;BME280;42803;55.762;38.084;2022-09-09T08:28:13;100551.34;;;12.67;54.08
53011;BME280;42803;55.762;38.084;2022-09-09T08:30:42;100550.53;;;12.37;53.77
53011;BME280;42803;55.762;38.084;2022-09-09T08:33:11;100559.31;;;11.88;54.39
53011;BME280;42803;55.762;38.084;2022-09-09T08:35:50;100570.78;;;11.32;55.05
53011;BME280;42803;55.762;38.084;2022-09-09T08:38:20;100564.03;;;10.96;56.20
53011;BME280;42803;55.762;38.084;2022-09-09T08:40:52;100562.88;;;10.65;56.73
53011;BME280;42803;55.762;38.084;2022-09-09T08:43:28;100575.72;;;10.72;57.85
53011;BME280;42803;55.762;38.084;2022-09-09T08:46:03;100566.84;;;11.08;57.24
53011;BME280;42803;55.762;38.084;2022-09-09T08:48:46;100567.13;;;11.11;56.30
53011;BME280;42803;55.762;38.084;2022-09-09T08:51:25;100570.13;;;11.54;56.22
53011;BME280;42803;55.762;38.084;2022-09-09T08:53:58;100567.66;;;11.84;54.91
53011;BME280;42803;55.762;38.084;2022-09-09T08:56:32;100564.81;;;11.91;54.56
53011;BME280;42803;55.762;38.084;2022-09-09T08:59:03;100564.63;;;12.19;53.56
53011;BME280;42803;55.762;38.084;2022-09-09T09:01:49;100558.09;;;12.14;54.06
53011;BME280;42803;55.762;38.084;2022-09-09T09:04:48;100561.97;;;12.09;53.97
53011;BME280;42803;55.762;38.084;2022-09-09T09:07:31;100562.13;;;12.20;53.05
53011;BME280;42803;55.762;38.084;2022-09-09T09:10:12;100571.47;;;12.48;53.07
53011;BME280;42803;55.762;38.084;2022-09-09T09:13:08;100563.97;;;12.22;53.37
53011;BME280;42803;55.762;38.084;2022-09-09T09:15:42;100570.13;;;12.32;54.03
53011;BME280;42803;55.762;38.084;2022-09-09T09:18:13;100550.63;;;11.79;53.96
53011;BME280;42803;55.762;38.084;2022-09-09T09:20:50;100573.50;;;11.82;55.51
53011;BME280;42803;55.762;38.084;2022-09-09T09:23:27;100573.66;;;12.23;54.47
53011;BME280;42803;55.762;38.084;2022-09-09T09:26:00;100565.22;;;12.86;53.51
53011;BME280;42803;55.762;38.084;2022-09-09T09:28:32;100567.53;;;12.63;53.18
53011;BME280;42803;55.762;38.084;2022-09-09T09:31:11;100568.19;;;12.30;54.30
53011;BME280;42803;55.762;38.084;2022-09-09T09:33:47;100577.66;;;11.99;54.75
53011;BME280;42803;55.762;38.084;2022-09-09T09:36:20;100573.19;;;11.68;55.41
53011;BME280;42803;55.762;38.084;2022-09-09T09:38:56;100570.38;;;12.15;55.41
53011;BME280;42803;55.762;38.084;2022-09-09T09:41:48;100558.09;;;13.26;52.77
53011;BME280;42803;55.762;38.084;2022-09-09T09:44:26;100557.63;;;13.84;50.39
53011;BME280;42803;55.762;38.084;2022-09-09T09:47:07;100547.75;;;14.14;49.07
53011;BME280;42803;55.762;38.084;2022-09-09T09:49:37;100557.28;;;14.24;49.84
53011;BME280;42803;55.762;38.084;2022-09-09T09:52:12;100556.72;;;13.52;50.78
53011;BME280;42803;55.762;38.084;2022-09-09T09:54:47;100565.72;;;12.62;51.75
53011;BME280;42803;55.762;38.084;2022-09-09T09:57:16;100565.91;;;12.04;54.25
53011;BME280;42803;55.762;38.084;2022-09-09T09:59:47;100585.47;;;11.69;55.08
53011;BME280;42803;55.762;38.084;2022-09-09T10:02:25;100577.06;;;11.34;54.99
53011;BME280;42803;55.762;38.084;2022-09-09T10:05:13;100578.13;;;11.17;56.34
53011;BME280;42803;55.762;38.084;2022-09-09T10:07:46;100575.09;;;11.32;55.93
53011;BME280;42803;55.762;38.084;2022-09-09T10:10:21;100568.25;;;11.82;54.95
53011;BME280;42803;55.762;38.084;2022-09-09T10:12:59;100566.09;;;12.66;53.43
53011;BME280;42803;55.762;38.084;2022-09-09T10:15:38;100550.63;;;13.00;50.83
53011;BME280;42803;55.762;38.084;2022-09-09T10:18:25;100560.81;;;13.38;49.62
53011;BME280;42803;55.762;38.084;2022-09-09T10:21:03;100550.69;;;13.43;49.41
53011;BME280;42803;55.762;38.084;2022-09-09T10:23:47;100561.72;;;13.49;47.86
53011;BME280;42803;55.762;38.084;2022-09-09T10:26:32;100559.56;;;13.02;49.50
53011;BME280;42803;55.762;38.084;2022-09-09T10:29:28;100567.53;;;13.14;50.29
53011;BME280;42803;55.762;38.084;2022-09-09T10:32:10;100574.22;;;12.69;50.65
53011;BME280;42803;55.762;38.084;2022-09-09T10:34:55;100570.72;;;12.79;51.14
53011;BME280;42803;55.762;38.084;2022-09-09T10:37:35;100572.91;;;12.54;51.33
53011;BME280;42803;55.762;38.084;2022-09-09T10:40:20;100568.22;;;12.01;51.58
53011;BME280;42803;55.762;38.084;2022-09-09T10:42:58;100570.69;;;11.89;52.51
53011;BME280;42803;55.762;38.084;2022-09-09T10:45:33;100567.25;;;12.19;51.79
53011;BME280;42803;55.762;38.084;2022-09-09T10:51:10;100574.63;;;12.64;49.95
53011;BME280;42803;55.762;38.084;2022-09-09T10:53:51;100581.19;;;12.49;50.12
53011;BME280;42803;55.762;38.084;2022-09-09T10:56:22;100573.25;;;12.28;51.00
53011;BME280;42803;55.762;38.084;2022-09-09T10:58:58;100569.25;;;12.62;51.47
53011;BME280;42803;55.762;38.084;2022-09-09T11:01:32;100577.78;;;12.60;50.68
53011;BME280;42803;55.762;38.084;2022-09-09T11:04:11;100574.75;;;12.55;50.84
53011;BME280;42803;55.762;38.084;2022-09-09T11:06:46;100574.38;;;12.61;50.97
53011;BME280;42803;55.762;38.084;2022-09-09T11:09:24;100569.50;;;12.55;50.41
53011;BME280;42803;55.762;38.084;2022-09-09T11:11:58;100552.97;;;13.07;50.22
53011;BME280;42803;55.762;38.084;2022-09-09T11:14:34;100568.16;;;13.22;50.26
53011;BME280;42803;55.762;38.084;2022-09-09T11:17:12;100563.50;;;13.60;50.86
53011;BME280;42803;55.762;38.084;2022-09-09T11:19:44;100571.72;;;13.32;50.90
53011;BME280;42803;55.762;38.084;2022-09-09T11:22:22;100577.47;;;13.08;51.23
53011;BME280;42803;55.762;38.084;2022-09-09T11:25:06;100583.56;;;12.86;51.00
53011;BME280;42803;55.762;38.084;2022-09-09T11:27:44;100583.78;;;12.49;51.83
53011;BME280;42803;55.762;38.084;2022-09-09T11:30:25;100573.28;;;12.38;52.31
53011;BME280;42803;55.762;38.084;2022-09-09T11:36:39;100571.75;;;12.91;51.63
53011;BME280;42803;55.762;38.084;2022-09-09T11:39:37;100560.16;;;13.20;51.63
53011;BME280;42803;55.762;38.084;2022-09-09T11:42:18;100563.72;;;13.31;50.56
53011;BME280;42803;55.762;38.084;2022-09-09T11:44:48;100565.94;;;13.16;51.08
53011;BME280;42803;55.762;38.084;2022-09-09T11:47:22;100573.81;;;13.16;51.04
53011;BME280;42803;55.762;38.084;2022-09-09T11:50:08;100571.97;;;13.05;51.33
53011;BME280;42803;55.762;38.084;2022-09-09T11:52:39;100570.44;;;12.76;52.28
53011;BME280;42803;55.762;38.084;2022-09-09T11:55:11;100558.38;;;12.58;52.74
53011;BME280;42803;55.762;38.084;2022-09-09T11:57:41;100571.19;;;12.34;52.79
53011;BME280;42803;55.762;38.084;2022-09-09T12:00:34;100575.41;;;12.53;52.31
53011;BME280;42803;55.762;38.084;2022-09-09T12:03:08;100571.75;;;12.71;51.38
53011;BME280;42803;55.762;38.084;2022-09-09T12:05:57;100576.72;;;13.09;50.09
53011;BME280;42803;55.762;38.084;2022-09-09T12:08:28;100574.09;;;13.29;49.30
53011;BME280;42803;55.762;38.084;2022-09-09T12:10:59;100560.97;;;13.29;48.32
53011;BME280;42803;55.762;38.084;2022-09-09T12:13:31;100567.25;;;13.31;49.31
53011;BME280;42803;55.762;38.084;2022-09-09T12:16:01;100560.69;;;13.16;49.52
53011;BME280;42803;55.762;38.084;2022-09-09T12:18:35;100572.91;;;12.34;49.97
53011;BME280;42803;55.762;38.084;2022-09-09T12:21:11;100575.50;;;11.84;50.89
53011;BME280;42803;55.762;38.084;2022-09-09T12:23:48;100571.25;;;11.76;51.95
53011;BME280;42803;55.762;38.084;2022-09-09T12:26:28;100565.50;;;12.09;52.12
53011;BME280;42803;55.762;38.084;2022-09-09T12:29:09;100571.06;;;12.33;50.33
53011;BME280;42803;55.762;38.084;2022-09-09T12:31:45;100571.38;;;12.56;49.61
53011;BME280;42803;55.762;38.084;2022-09-09T12:34:20;100561.38;;;13.24;49.05
53011;BME280;42803;55.762;38.084;2022-09-09T12:36:58;100553.53;;;13.66;47.91
53011;BME280;42803;55.762;38.084;2022-09-09T12:39:38;100557.84;;;13.23;47.91
53011;BME280;42803;55.762;38.084;2022-09-09T12:42:16;100556.81;;;12.80;49.31
53011;BME280;42803;55.762;38.084;2022-09-09T12:44:57;100572.13;;;12.45;49.59
53011;BME280;42803;55.762;38.084;2022-09-09T12:47:33;100573.03;;;12.35;50.40
53011;BME280;42803;55.762;38.084;2022-09-09T12:50:15;100561.72;;;12.16;50.90
53011;BME280;42803;55.762;38.084;2022-09-09T12:52:45;100570.56;;;11.87;51.70
53011;BME280;42803;55.762;38.084;2022-09-09T12:55:18;100570.13;;;11.54;52.80
53011;BME280;42803;55.762;38.084;2022-09-09T12:57:49;100561.94;;;11.40;53.76
53011;BME280;42803;55.762;38.084;2022-09-09T13:00:20;100570.75;;;11.22;53.75
53011;BME280;42803;55.762;38.084;2022-09-09T13:02:51;100571.75;;;11.43;53.68
53011;BME280;42803;55.762;38.084;2022-09-09T13:05:24;100559.84;;;11.65;53.56
53011;BME280;42803;55.762;38.084;2022-09-09T13:08:01;100565.84;;;11.83;52.48
53011;BME280;42803;55.762;38.084;2022-09-09T13:10:33;100568.19;;;11.90;52.31
53011;BME280;42803;55.762;38.084;2022-09-09T13:13:23;100561.84;;;12.07;52.08
53011;BME280;42803;55.762;38.084;2022-09-09T13:15:55;100569.22;;;12.32;51.83
53011;BME280;42803;55.762;38.084;2022-09-09T13:18:27;100562.94;;;12.30;51.66
53011;BME280;42803;55.762;38.084;2022-09-09T13:20:58;100570.00;;;12.31;50.96
53011;BME280;42803;55.762;38.084;2022-09-09T13:23:29;100570.31;;;11.94;51.83
53011;BME280;42803;55.762;38.084;2022-09-09T13:26:02;100577.22;;;11.65;52.70